sensor_id;sensor_type;location;lat;lon;timestamp;temperature;humidity
57664;DHT22;43493;53.098;6.064;2023-02-13T00:00:18;7.50;99.90
57664;DHT22;43493;53.098;6.064;2023-02-13T00:02:44;7.50;99.90
57664;DHT22;43493;53.098;6.064;2023-02-13T00:05:10;7.50;99.90
57664;DHT22;43493;53.098;6.064;2023-02-13T00:07:35;7.50;99.90
57664;DHT22;43493;53.098;6.064;2023-02-13T00:10:01;7.50;99.90
57664;DHT22;43493;53.098;6.064;2023-02-13T00:12:27;7.50;99.90
57664;DHT22;43493;53.098;6.064;2023-02-13T00:14:52;7.50;99.90
57664;DHT22;43493;53.098;6.064;2023-02-13T00:17:18;7.50;99.90
57664;DHT22;43493;53.098;6.064;2023-02-13T00:19:44;7.40;99.90
57664;DHT22;43493;53.098;6.064;2023-02-13T00:22:10;7.40;99.90
57664;DHT22;43493;53.098;6.064;2023-02-13T00:24:36;7.40;99.90
57664;DHT22;43493;53.098;6.064;2023-02-13T00:27:01;7.40;99.90
57664;DHT22;43493;53.098;6.064;2023-02-13T00:29:27;7.40;99.90
57664;DHT22;43493;53.098;6.064;2023-02-13T00:31:53;7.40;99.90
57664;DHT22;43493;53.098;6.064;2023-02-13T00:34:18;7.40;99.90
57664;DHT22;43493;53.098;6.064;2023-02-13T00:36:44;7.40;99.90
57664;DHT22;43493;53.098;6.064;2023-02-13T00:39:11;7.40;99.90
57664;DHT22;43493;53.098;6.064;2023-02-13T00:41:37;7.40;99.90
57664;DHT22;43493;53.098;6.064;2023-02-13T00:44:03;7.30;99.90
57664;DHT22;43493;53.098;6.064;2023-02-13T00:46:29;7.30;99.90
57664;DHT22;43493;53.098;6.064;2023-02-13T00:48:54;7.30;99.90
57664;DHT22;43493;53.098;6.064;2023-02-13T00:51:20;7.30;99.90
57664;DHT22;43493;53.098;6.064;2023-02-13T00:53:46;7.30;99.90
57664;DHT22;43493;53.098;6.064;2023-02-13T00:56:11;7.40;99.90
57664;DHT22;43493;53.098;6.064;2023-02-13T00:58:37;7.30;99.90
57664;DHT22;43493;53.098;6.064;2023-02-13T01:01:03;7.30;99.90
57664;DHT22;43493;53.098;6.064;2023-02-13T01:03:29;7.30;99.90
57664;DHT22;43493;53.098;6.064;2023-02-13T01:05:56;7.40;99.90
57664;DHT22;43493;53.098;6.064;2023-02-13T01:08:23;7.40;99.90
57664;DHT22;43493;53.098;6.064;2023-02-13T01:10:48;7.30;99.90
57664;DHT22;43493;53.098;6.064;2023-02-13T01:13:16;7.30;99.90
57664;DHT22;43493;53.098;6.064;2023-02-13T01:15:43;7.30;99.90
57664;DHT22;43493;53.098;6.064;2023-02-13T01:18:12;7.30;99.90
57664;DHT22;43493;53.098;6.064;2023-02-13T01:20:38;7.30;99.90
57664;DHT22;43493;53.098;6.064;2023-02-13T01:23:03;7.30;99.90
57664;DHT22;43493;53.098;6.064;2023-02-13T01:25:30;7.30;99.90
57664;DHT22;43493;53.098;6.064;2023-02-13T01:27:55;7.30;99.90
57664;DHT22;43493;53.098;6.064;2023-02-13T01:30:21;7.30;99.90
57664;DHT22;43493;53.098;6.064;2023-02-13T01:32:47;7.30;99.90
57664;DHT22;43493;53.098;6.064;2023-02-13T01:35:14;7.30;99.90
57664;DHT22;43493;53.098;6.064;2023-02-13T01:37:40;7.30;99.90
57664;DHT22;43493;53.098;6.064;2023-02-13T01:40:09;7.30;99.90
57664;DHT22;43493;53.098;6.064;2023-02-13T01:42:35;7.30;99.90
57664;DHT22;43493;53.098;6.064;2023-02-13T01:47:53;7.30;99.90
57664;DHT22;43493;53.098;6.064;2023-02-13T01:50:33;7.30;99.90
57664;DHT22;43493;53.098;6.064;2023-02-13T01:53:07;7.30;99.90
57664;DHT22;43493;53.098;6.064;2023-02-13T01:55:36;7.30;99.90
57664;DHT22;43493;53.098;6.064;2023-02-13T01:58:08;7.30;99.90
57664;DHT22;43493;53.098;6.064;2023-02-13T02:00:35;7.30;99.90
57664;DHT22;43493;53.098;6.064;2023-02-13T02:03:11;7.30;99.90
57664;DHT22;43493;53.098;6.064;2023-02-13T02:05:38;7.30;99.90
57664;DHT22;43493;53.098;6.064;2023-02-13T02:08:07;7.30;99.90
57664;DHT22;43493;53.098;6.064;2023-02-13T02:10:35;7.30;99.90
57664;DHT22;43493;53.098;6.064;2023-02-13T02:13:11;7.20;99.90
57664;DHT22;43493;53.098;6.064;2023-02-13T02:15:37;7.30;99.90
57664;DHT22;43493;53.098;6.064;2023-02-13T02:18:11;7.30;99.90
57664;DHT22;43493;53.098;6.064;2023-02-13T02:49:12;7.20;99.90
57664;DHT22;43493;53.098;6.064;2023-02-13T02:52:14;7.20;99.90
57664;DHT22;43493;53.098;6.064;2023-02-13T02:54:59;7.20;99.90
57664;DHT22;43493;53.098;6.064;2023-02-13T02:57:39;7.20;99.90
57664;DHT22;43493;53.098;6.064;2023-02-13T03:00:27;7.20;99.90
57664;DHT22;43493;53.098;6.064;2023-02-13T03:03:21;7.20;99.90
57664;DHT22;43493;53.098;6.064;2023-02-13T03:06:23;7.20;99.90
57664;DHT22;43493;53.098;6.064;2023-02-13T03:08:53;7.20;99.90
57664;DHT22;43493;53.098;6.064;2023-02-13T03:11:51;7.20;99.90
57664;DHT22;43493;53.098;6.064;2023-02-13T03:14:37;7.20;99.90
57664;DHT22;43493;53.098;6.064;2023-02-13T03:17:04;7.20;99.90
57664;DHT22;43493;53.098;6.064;2023-02-13T03:20:01;7.30;99.90
57664;DHT22;43493;53.098;6.064;2023-02-13T03:28:35;7.30;99.90
57664;DHT22;43493;53.098;6.064;2023-02-13T03:31:37;7.30;99.90
57664;DHT22;43493;53.098;6.064;2023-02-13T03:34:12;7.20;99.90
57664;DHT22;43493;53.098;6.064;2023-02-13T03:36:46;7.30;99.90
57664;DHT22;43493;53.098;6.064;2023-02-13T03:39:48;7.30;99.90
57664;DHT22;43493;53.098;6.064;2023-02-13T03:42:38;7.20;99.90
57664;DHT22;43493;53.098;6.064;2023-02-13T03:45:12;7.20;99.90
57664;DHT22;43493;53.098;6.064;2023-02-13T03:47:58;7.20;99.90
57664;DHT22;43493;53.098;6.064;2023-02-13T03:50:26;7.20;99.90
57664;DHT22;43493;53.098;6.064;2023-02-13T03:53:05;7.20;99.90
57664;DHT22;43493;53.098;6.064;2023-02-13T03:55:36;7.20;99.90
57664;DHT22;43493;53.098;6.064;2023-02-13T03:58:31;7.20;99.90
57664;DHT22;43493;53.098;6.064;2023-02-13T04:01:20;7.20;99.90
57664;DHT22;43493;53.098;6.064;2023-02-13T04:04:07;7.20;99.90
57664;DHT22;43493;53.098;6.064;2023-02-13T04:06:55;7.20;99.90
57664;DHT22;43493;53.098;6.064;2023-02-13T04:09:23;7.20;99.90
57664;DHT22;43493;53.098;6.064;2023-02-13T04:12:15;7.20;99.90
57664;DHT22;43493;53.098;6.064;2023-02-13T04:17:26;7.10;99.90
57664;DHT22;43493;53.098;6.064;2023-02-13T04:19:54;7.10;99.90
57664;DHT22;43493;53.098;6.064;2023-02-13T04:22:20;7.20;99.90
57664;DHT22;43493;53.098;6.064;2023-02-13T04:24:46;7.10;99.90
57664;DHT22;43493;53.098;6.064;2023-02-13T04:27:14;7.20;99.90
57664;DHT22;43493;53.098;6.064;2023-02-13T04:29:40;7.10;99.90
57664;DHT22;43493;53.098;6.064;2023-02-13T04:32:06;7.10;99.90
57664;DHT22;43493;53.098;6.064;2023-02-13T04:34:33;7.10;99.90
57664;DHT22;43493;53.098;6.064;2023-02-13T04:36:59;7.10;99.90
57664;DHT22;43493;53.098;6.064;2023-02-13T04:39:25;7.10;99.90
57664;DHT22;43493;53.098;6.064;2023-02-13T04:41:50;7.10;99.90
57664;DHT22;43493;53.098;6.064;2023-02-13T04:44:16;7.10;99.90
57664;DHT22;43493;53.098;6.064;2023-02-13T04:46:42;7.10;99.90
57664;DHT22;43493;53.098;6.064;2023-02-13T04:49:09;7.10;99.90
57664;DHT22;43493;53.098;6.064;2023-02-13T04:51:35;7.10;99.90
57664;DHT22;43493;53.098;6.064;2023-02-13T04:54:01;7.10;99.90
57664;DHT22;43493;53.098;6.064;2023-02-13T04:56:26;7.10;99.90
57664;DHT22;43493;53.098;6.064;2023-02-13T04:58:54;7.10;99.90
57664;DHT22;43493;53.098;6.064;2023-02-13T05:01:20;7.00;99.90
57664;DHT22;43493;53.098;6.064;2023-02-13T05:03:46;7.00;99.90
57664;DHT22;43493;53.098;6.064;2023-02-13T05:06:12;7.00;99.90
57664;DHT22;43493;53.098;6.064;2023-02-13T05:08:38;7.00;99.90
57664;DHT22;43493;53.098;6.064;2023-02-13T05:11:04;7.00;99.90
57664;DHT22;43493;53.098;6.064;2023-02-13T05:13:30;6.90;99.90
57664;DHT22;43493;53.098;6.064;2023-02-13T05:15:56;6.90;99.90
57664;DHT22;43493;53.098;6.064;2023-02-13T05:18:22;6.90;99.90
57664;DHT22;43493;53.098;6.064;2023-02-13T05:20:47;7.00;99.90
57664;DHT22;43493;53.098;6.064;2023-02-13T05:23:33;7.00;99.90
57664;DHT22;43493;53.098;6.064;2023-02-13T05:25:59;7.00;99.90
57664;DHT22;43493;53.098;6.064;2023-02-13T05:28:24;7.00;99.90
57664;DHT22;43493;53.098;6.064;2023-02-13T05:31:09;7.00;99.90
57664;DHT22;43493;53.098;6.064;2023-02-13T05:33:35;7.00;99.90
57664;DHT22;43493;53.098;6.064;2023-02-13T05:36:00;7.00;99.90
57664;DHT22;43493;53.098;6.064;2023-02-13T05:38:26;7.00;99.90
57664;DHT22;43493;53.098;6.064;2023-02-13T05:40:52;7.00;99.90
57664;DHT22;43493;53.098;6.064;2023-02-13T05:43:18;7.00;99.90
57664;DHT22;43493;53.098;6.064;2023-02-13T05:45:44;7.00;99.90
57664;DHT22;43493;53.098;6.064;2023-02-13T05:48:10;7.00;99.90
57664;DHT22;43493;53.098;6.064;2023-02-13T05:50:36;7.00;99.90
57664;DHT22;43493;53.098;6.064;2023-02-13T05:53:01;7.00;99.90
57664;DHT22;43493;53.098;6.064;2023-02-13T05:55:27;7.00;99.90
57664;DHT22;43493;53.098;6.064;2023-02-13T05:57:56;7.00;99.90
57664;DHT22;43493;53.098;6.064;2023-02-13T06:00:22;7.00;99.90
57664;DHT22;43493;53.098;6.064;2023-02-13T06:02:48;7.00;99.90
57664;DHT22;43493;53.098;6.064;2023-02-13T06:05:14;7.00;99.90
57664;DHT22;43493;53.098;6.064;2023-02-13T06:07:40;7.00;99.90
57664;DHT22;43493;53.098;6.064;2023-02-13T06:10:06;7.00;99.90
57664;DHT22;43493;53.098;6.064;2023-02-13T06:12:32;7.00;99.90
57664;DHT22;43493;53.098;6.064;2023-02-13T06:14:57;7.00;99.90
57664;DHT22;43493;53.098;6.064;2023-02-13T06:17:23;7.00;99.90
57664;DHT22;43493;53.098;6.064;2023-02-13T06:19:49;7.00;99.90
57664;DHT22;43493;53.098;6.064;2023-02-13T06:22:14;7.00;99.90
57664;DHT22;43493;53.098;6.064;2023-02-13T06:24:40;7.00;99.90
57664;DHT22;43493;53.098;6.064;2023-02-13T06:27:06;7.00;99.90
57664;DHT22;43493;53.098;6.064;2023-02-13T06:29:31;7.00;99.90
57664;DHT22;43493;53.098;6.064;2023-02-13T06:31:58;7.00;99.90
57664;DHT22;43493;53.098;6.064;2023-02-13T06:34:24;7.00;99.90
57664;DHT22;43493;53.098;6.064;2023-02-13T06:36:49;6.90;99.90
57664;DHT22;43493;53.098;6.064;2023-02-13T06:39:15;7.00;99.90
57664;DHT22;43493;53.098;6.064;2023-02-13T06:41:41;7.00;99.90
57664;DHT22;43493;53.098;6.064;2023-02-13T06:44:06;7.00;99.90
57664;DHT22;43493;53.098;6.064;2023-02-13T06:46:32;7.00;99.90
57664;DHT22;43493;53.098;6.064;2023-02-13T06:48:58;7.00;99.90
57664;DHT22;43493;53.098;6.064;2023-02-13T06:51:24;7.00;99.90
57664;DHT22;43493;53.098;6.064;2023-02-13T06:53:49;7.00;99.90
57664;DHT22;43493;53.098;6.064;2023-02-13T06:56:15;7.00;99.90
57664;DHT22;43493;53.098;6.064;2023-02-13T06:58:41;6.90;99.90
57664;DHT22;43493;53.098;6.064;2023-02-13T07:01:06;6.90;99.90
57664;DHT22;43493;53.098;6.064;2023-02-13T07:03:32;6.90;99.90
57664;DHT22;43493;53.098;6.064;2023-02-13T07:05:58;6.90;99.90
57664;DHT22;43493;53.098;6.064;2023-02-13T07:08:24;6.90;99.90
57664;DHT22;43493;53.098;6.064;2023-02-13T07:10:49;6.90;99.90
57664;DHT22;43493;53.098;6.064;2023-02-13T07:13:15;6.90;99.90
57664;DHT22;43493;53.098;6.064;2023-02-13T07:15:41;6.90;99.90
57664;DHT22;43493;53.098;6.064;2023-02-13T07:18:07;6.90;99.90
57664;DHT22;43493;53.098;6.064;2023-02-13T07:20:33;6.90;99.90
57664;DHT22;43493;53.098;6.064;2023-02-13T07:23:04;6.90;99.90
57664;DHT22;43493;53.098;6.064;2023-02-13T07:25:30;7.00;99.90
57664;DHT22;43493;53.098;6.064;2023-02-13T07:28:04;7.00;99.90
57664;DHT22;43493;53.098;6.064;2023-02-13T07:30:30;6.90;99.90
57664;DHT22;43493;53.098;6.064;2023-02-13T07:33:01;6.90;99.90
57664;DHT22;43493;53.098;6.064;2023-02-13T07:35:26;7.00;99.90
57664;DHT22;43493;53.098;6.064;2023-02-13T07:37:53;7.00;99.90
57664;DHT22;43493;53.098;6.064;2023-02-13T07:40:19;7.00;99.90
57664;DHT22;43493;53.098;6.064;2023-02-13T07:42:45;7.00;99.90
57664;DHT22;43493;53.098;6.064;2023-02-13T07:45:11;7.00;99.90
57664;DHT22;43493;53.098;6.064;2023-02-13T07:47:36;7.00;99.90
57664;DHT22;43493;53.098;6.064;2023-02-13T07:50:02;7.00;99.90
57664;DHT22;43493;53.098;6.064;2023-02-13T07:52:30;7.10;99.90
57664;DHT22;43493;53.098;6.064;2023-02-13T07:54:57;7.10;99.90
57664;DHT22;43493;53.098;6.064;2023-02-13T07:57:23;7.10;99.90
57664;DHT22;43493;53.098;6.064;2023-02-13T07:59:48;7.10;99.90
57664;DHT22;43493;53.098;6.064;2023-02-13T08:02:15;7.10;99.90
57664;DHT22;43493;53.098;6.064;2023-02-13T08:04:41;7.10;99.90
57664;DHT22;43493;53.098;6.064;2023-02-13T08:07:14;7.10;99.90
57664;DHT22;43493;53.098;6.064;2023-02-13T08:09:40;7.10;99.90
57664;DHT22;43493;53.098;6.064;2023-02-13T08:12:24;7.10;99.90
57664;DHT22;43493;53.098;6.064;2023-02-13T08:14:50;7.10;99.90
57664;DHT22;43493;53.098;6.064;2023-02-13T08:17:15;7.10;99.90
57664;DHT22;43493;53.098;6.064;2023-02-13T08:19:41;7.20;99.90
57664;DHT22;43493;53.098;6.064;2023-02-13T08:22:07;7.20;99.90
57664;DHT22;43493;53.098;6.064;2023-02-13T08:24:33;7.20;99.90
57664;DHT22;43493;53.098;6.064;2023-02-13T08:26:59;7.20;99.90
57664;DHT22;43493;53.098;6.064;2023-02-13T08:29:24;7.20;99.90
57664;DHT22;43493;53.098;6.064;2023-02-13T08:31:50;7.20;99.90
57664;DHT22;43493;53.098;6.064;2023-02-13T08:34:16;7.20;99.90
57664;DHT22;43493;53.098;6.064;2023-02-13T08:36:41;7.20;99.90
57664;DHT22;43493;53.098;6.064;2023-02-13T08:39:08;7.20;99.90
57664;DHT22;43493;53.098;6.064;2023-02-13T08:41:34;7.20;99.90
57664;DHT22;43493;53.098;6.064;2023-02-13T08:44:00;7.20;99.90
57664;DHT22;43493;53.098;6.064;2023-02-13T08:46:26;7.20;99.90
57664;DHT22;43493;53.098;6.064;2023-02-13T08:48:52;7.20;99.90
57664;DHT22;43493;53.098;6.064;2023-02-13T08:51:18;7.20;99.90
57664;DHT22;43493;53.098;6.064;2023-02-13T08:53:44;7.20;99.90
57664;DHT22;43493;53.098;6.064;2023-02-13T08:56:10;7.20;99.90
57664;DHT22;43493;53.098;6.064;2023-02-13T08:58:36;7.20;99.90
57664;DHT22;43493;53.098;6.064;2023-02-13T09:01:06;7.20;99.90
57664;DHT22;43493;53.098;6.064;2023-02-13T09:03:33;7.20;99.90
57664;DHT22;43493;53.098;6.064;2023-02-13T09:06:01;7.30;99.90
57664;DHT22;43493;53.098;6.064;2023-02-13T09:08:27;7.30;99.90
57664;DHT22;43493;53.098;6.064;2023-02-13T09:11:01;7.30;99.90
57664;DHT22;43493;53.098;6.064;2023-02-13T09:13:29;7.30;99.90
57664;DHT22;43493;53.098;6.064;2023-02-13T09:16:03;7.30;99.90
57664;DHT22;43493;53.098;6.064;2023-02-13T09:18:29;7.30;99.90
57664;DHT22;43493;53.098;6.064;2023-02-13T09:21:09;7.30;99.90
57664;DHT22;43493;53.098;6.064;2023-02-13T09:23:37;7.30;99.90
57664;DHT22;43493;53.098;6.064;2023-02-13T09:26:06;7.40;99.90
57664;DHT22;43493;53.098;6.064;2023-02-13T09:28:33;7.40;99.90
57664;DHT22;43493;53.098;6.064;2023-02-13T09:31:04;7.40;99.90
57664;DHT22;43493;53.098;6.064;2023-02-13T09:33:30;7.40;99.90
57664;DHT22;43493;53.098;6.064;2023-02-13T09:35:56;7.40;99.90
57664;DHT22;43493;53.098;6.064;2023-02-13T09:38:21;7.40;99.90
57664;DHT22;43493;53.098;6.064;2023-02-13T09:40:59;7.40;99.90
57664;DHT22;43493;53.098;6.064;2023-02-13T09:43:35;7.40;99.90
57664;DHT22;43493;53.098;6.064;2023-02-13T09:46:10;7.40;99.90
57664;DHT22;43493;53.098;6.064;2023-02-13T09:48:38;7.40;99.90
57664;DHT22;43493;53.098;6.064;2023-02-13T09:51:05;7.50;99.90
57664;DHT22;43493;53.098;6.064;2023-02-13T09:53:31;7.50;99.90
57664;DHT22;43493;53.098;6.064;2023-02-13T09:56:17;7.50;99.90
57664;DHT22;43493;53.098;6.064;2023-02-13T09:59:08;7.50;99.90
57664;DHT22;43493;53.098;6.064;2023-02-13T10:01:42;7.50;99.90
57664;DHT22;43493;53.098;6.064;2023-02-13T10:04:30;7.50;99.90
57664;DHT22;43493;53.098;6.064;2023-02-13T10:09:51;7.60;99.90
57664;DHT22;43493;53.098;6.064;2023-02-13T10:17:41;7.60;99.90
57664;DHT22;43493;53.098;6.064;2023-02-13T10:20:31;7.60;99.90
57664;DHT22;43493;53.098;6.064;2023-02-13T10:23:07;7.60;99.90
57664;DHT22;43493;53.098;6.064;2023-02-13T10:26:06;7.70;99.90
57664;DHT22;43493;53.098;6.064;2023-02-13T10:28:57;7.70;99.90
57664;DHT22;43493;53.098;6.064;2023-02-13T10:32:02;7.70;99.90
57664;DHT22;43493;53.098;6.064;2023-02-13T10:34:35;7.70;99.90
57664;DHT22;43493;53.098;6.064;2023-02-13T10:37:02;7.80;99.90
57664;DHT22;43493;53.098;6.064;2023-02-13T10:39:30;7.80;99.90
57664;DHT22;43493;53.098;6.064;2023-02-13T10:58:12;7.90;99.90
57664;DHT22;43493;53.098;6.064;2023-02-13T11:01:06;8.00;99.90
57664;DHT22;43493;53.098;6.064;2023-02-13T11:03:34;8.00;99.90
57664;DHT22;43493;53.098;6.064;2023-02-13T11:06:07;8.00;99.90
57664;DHT22;43493;53.098;6.064;2023-02-13T11:08:42;8.10;99.90
57664;DHT22;43493;53.098;6.064;2023-02-13T11:11:31;8.10;99.90
57664;DHT22;43493;53.098;6.064;2023-02-13T11:14:08;8.10;99.90
57664;DHT22;43493;53.098;6.064;2023-02-13T11:22:04;8.30;99.90
57664;DHT22;43493;53.098;6.064;2023-02-13T11:24:32;8.30;99.90
57664;DHT22;43493;53.098;6.064;2023-02-13T11:27:04;8.40;99.90
57664;DHT22;43493;53.098;6.064;2023-02-13T11:29:35;8.30;99.90
57664;DHT22;43493;53.098;6.064;2023-02-13T11:34:44;8.40;99.90
57664;DHT22;43493;53.098;6.064;2023-02-13T11:37:14;8.40;99.90
57664;DHT22;43493;53.098;6.064;2023-02-13T11:39:43;8.40;99.90
57664;DHT22;43493;53.098;6.064;2023-02-13T11:42:28;8.40;99.90
57664;DHT22;43493;53.098;6.064;2023-02-13T11:47:43;8.50;99.90
57664;DHT22;43493;53.098;6.064;2023-02-13T11:52:54;8.60;99.90
57664;DHT22;43493;53.098;6.064;2023-02-13T11:55:39;8.60;99.90
57664;DHT22;43493;53.098;6.064;2023-02-13T12:00:38;8.70;99.90
57664;DHT22;43493;53.098;6.064;2023-02-13T12:03:25;8.70;99.90
57664;DHT22;43493;53.098;6.064;2023-02-13T12:06:12;8.80;99.90
57664;DHT22;43493;53.098;6.064;2023-02-13T12:08:41;8.80;99.90
57664;DHT22;43493;53.098;6.064;2023-02-13T12:11:20;8.80;99.90
57664;DHT22;43493;53.098;6.064;2023-02-13T12:13:47;8.90;99.90
57664;DHT22;43493;53.098;6.064;2023-02-13T12:16:38;8.90;99.90
57664;DHT22;43493;53.098;6.064;2023-02-13T12:19:10;8.90;99.90
57664;DHT22;43493;53.098;6.064;2023-02-13T12:22:04;9.00;99.90
57664;DHT22;43493;53.098;6.064;2023-02-13T12:33:22;9.10;99.90
57664;DHT22;43493;53.098;6.064;2023-02-13T12:43:44;9.20;99.90
57664;DHT22;43493;53.098;6.064;2023-02-13T13:03:34;9.30;99.90
57664;DHT22;43493;53.098;6.064;2023-02-13T13:06:09;9.40;99.90
57664;DHT22;43493;53.098;6.064;2023-02-13T13:14:21;9.40;99.90
57664;DHT22;43493;53.098;6.064;2023-02-13T13:22:49;9.50;99.90
57664;DHT22;43493;53.098;6.064;2023-02-13T13:27:48;9.50;99.90
57664;DHT22;43493;53.098;6.064;2023-02-13T13:30:19;9.50;99.90
57664;DHT22;43493;53.098;6.064;2023-02-13T13:32:55;9.50;99.90
57664;DHT22;43493;53.098;6.064;2023-02-13T13:35:21;9.50;99.90
57664;DHT22;43493;53.098;6.064;2023-02-13T13:40:42;9.60;99.90
57664;DHT22;43493;53.098;6.064;2023-02-13T13:46:20;9.60;99.90
57664;DHT22;43493;53.098;6.064;2023-02-13T13:48:58;9.60;99.90
57664;DHT22;43493;53.098;6.064;2023-02-13T13:51:25;9.60;99.90
57664;DHT22;43493;53.098;6.064;2023-02-13T13:56:26;9.70;99.90
57664;DHT22;43493;53.098;6.064;2023-02-13T13:58:52;9.70;99.90
57664;DHT22;43493;53.098;6.064;2023-02-13T14:01:28;9.60;99.90
57664;DHT22;43493;53.098;6.064;2023-02-13T14:11:54;9.70;99.90
57664;DHT22;43493;53.098;6.064;2023-02-13T14:16:56;9.70;99.90
57664;DHT22;43493;53.098;6.064;2023-02-13T14:19:32;9.70;99.90
57664;DHT22;43493;53.098;6.064;2023-02-13T14:25:24;9.70;99.90
57664;DHT22;43493;53.098;6.064;2023-02-13T14:27:42;9.70;99.90
57664;DHT22;43493;53.098;6.064;2023-02-13T14:30:40;9.70;99.90
57664;DHT22;43493;53.098;6.064;2023-02-13T14:33:22;9.70;99.90
57664;DHT22;43493;53.098;6.064;2023-02-13T14:35:59;9.70;99.90
57664;DHT22;43493;53.098;6.064;2023-02-13T14:38:26;9.70;99.90
57664;DHT22;43493;53.098;6.064;2023-02-13T14:40:53;9.70;99.90
57664;DHT22;43493;53.098;6.064;2023-02-13T14:49:00;9.70;99.90
57664;DHT22;43493;53.098;6.064;2023-02-13T14:51:35;9.70;99.90
57664;DHT22;43493;53.098;6.064;2023-02-13T14:56:38;9.70;99.90
57664;DHT22;43493;53.098;6.064;2023-02-13T14:59:14;9.70;99.90
57664;DHT22;43493;53.098;6.064;2023-02-13T15:02:20;9.70;99.90
57664;DHT22;43493;53.098;6.064;2023-02-13T15:04:45;9.70;99.90
57664;DHT22;43493;53.098;6.064;2023-02-13T15:07:25;9.70;99.90
57664;DHT22;43493;53.098;6.064;2023-02-13T15:09:57;9.70;99.90
57664;DHT22;43493;53.098;6.064;2023-02-13T15:12:33;9.70;99.90
57664;DHT22;43493;53.098;6.064;2023-02-13T15:15:01;9.70;99.90
57664;DHT22;43493;53.098;6.064;2023-02-13T15:17:30;9.70;99.90
57664;DHT22;43493;53.098;6.064;2023-02-13T15:22:45;9.70;99.90
57664;DHT22;43493;53.098;6.064;2023-02-13T15:25:40;9.70;99.90
57664;DHT22;43493;53.098;6.064;2023-02-13T15:28:07;9.70;99.90
57664;DHT22;43493;53.098;6.064;2023-02-13T15:30:43;9.70;99.90
57664;DHT22;43493;53.098;6.064;2023-02-13T15:33:19;9.70;99.90
57664;DHT22;43493;53.098;6.064;2023-02-13T15:35:45;9.60;99.90
57664;DHT22;43493;53.098;6.064;2023-02-13T15:38:34;9.60;99.90
57664;DHT22;43493;53.098;6.064;2023-02-13T15:41:17;9.60;99.90
57664;DHT22;43493;53.098;6.064;2023-02-13T15:43:50;9.60;99.90
57664;DHT22;43493;53.098;6.064;2023-02-13T15:46:31;9.60;99.90
57664;DHT22;43493;53.098;6.064;2023-02-13T15:49:06;9.50;99.90
57664;DHT22;43493;53.098;6.064;2023-02-13T15:51:32;9.50;99.90
57664;DHT22;43493;53.098;6.064;2023-02-13T15:54:00;9.50;99.90
57664;DHT22;43493;53.098;6.064;2023-02-13T15:56:26;9.50;99.90
57664;DHT22;43493;53.098;6.064;2023-02-13T15:58:53;9.40;99.90
57664;DHT22;43493;53.098;6.064;2023-02-13T16:01:19;9.40;99.90
57664;DHT22;43493;53.098;6.064;2023-02-13T16:03:48;9.30;99.90
57664;DHT22;43493;53.098;6.064;2023-02-13T16:06:16;9.30;99.90
57664;DHT22;43493;53.098;6.064;2023-02-13T16:08:53;9.30;99.90
57664;DHT22;43493;53.098;6.064;2023-02-13T16:11:38;9.30;99.90
57664;DHT22;43493;53.098;6.064;2023-02-13T16:16:40;9.10;99.90
57664;DHT22;43493;53.098;6.064;2023-02-13T16:21:48;9.00;99.90
57664;DHT22;43493;53.098;6.064;2023-02-13T16:24:15;9.00;99.90
57664;DHT22;43493;53.098;6.064;2023-02-13T16:26:42;8.90;99.90
57664;DHT22;43493;53.098;6.064;2023-02-13T16:29:18;8.80;99.90
57664;DHT22;43493;53.098;6.064;2023-02-13T16:31:44;8.80;99.90
57664;DHT22;43493;53.098;6.064;2023-02-13T16:34:25;8.70;99.90
57664;DHT22;43493;53.098;6.064;2023-02-13T16:36:52;8.70;99.90
57664;DHT22;43493;53.098;6.064;2023-02-13T16:39:28;8.60;99.90
57664;DHT22;43493;53.098;6.064;2023-02-13T16:41:55;8.50;99.90
57664;DHT22;43493;53.098;6.064;2023-02-13T16:44:28;8.50;99.90
57664;DHT22;43493;53.098;6.064;2023-02-13T16:47:03;8.40;99.90
57664;DHT22;43493;53.098;6.064;2023-02-13T16:49:32;8.30;99.90
57664;DHT22;43493;53.098;6.064;2023-02-13T16:52:17;8.20;99.90
57664;DHT22;43493;53.098;6.064;2023-02-13T16:57:28;8.10;99.90
57664;DHT22;43493;53.098;6.064;2023-02-13T17:00:14;8.00;99.90
57664;DHT22;43493;53.098;6.064;2023-02-13T17:02:41;7.90;99.90
57664;DHT22;43493;53.098;6.064;2023-02-13T17:07:38;7.80;99.90
57664;DHT22;43493;53.098;6.064;2023-02-13T17:10:20;7.70;99.90
57664;DHT22;43493;53.098;6.064;2023-02-13T17:12:47;7.70;99.90
57664;DHT22;43493;53.098;6.064;2023-02-13T17:15:15;7.60;99.90
57664;DHT22;43493;53.098;6.064;2023-02-13T17:17:41;7.60;99.90
57664;DHT22;43493;53.098;6.064;2023-02-13T17:20:13;7.50;99.90
57664;DHT22;43493;53.098;6.064;2023-02-13T17:22:41;7.40;99.90
57664;DHT22;43493;53.098;6.064;2023-02-13T17:25:16;7.40;99.90
57664;DHT22;43493;53.098;6.064;2023-02-13T17:27:48;7.40;99.90
57664;DHT22;43493;53.098;6.064;2023-02-13T17:30:32;7.40;99.90
57664;DHT22;43493;53.098;6.064;2023-02-13T17:33:17;7.40;99.90
57664;DHT22;43493;53.098;6.064;2023-02-13T17:35:44;7.30;99.90
57664;DHT22;43493;53.098;6.064;2023-02-13T17:38:10;7.30;99.90
57664;DHT22;43493;53.098;6.064;2023-02-13T17:40:37;7.20;99.90
57664;DHT22;43493;53.098;6.064;2023-02-13T17:43:04;7.20;99.90
57664;DHT22;43493;53.098;6.064;2023-02-13T17:45:31;7.10;99.90
57664;DHT22;43493;53.098;6.064;2023-02-13T17:47:57;7.10;99.90
57664;DHT22;43493;53.098;6.064;2023-02-13T17:50:25;7.10;99.90
57664;DHT22;43493;53.098;6.064;2023-02-13T17:52:51;7.10;99.90
57664;DHT22;43493;53.098;6.064;2023-02-13T17:55:22;7.00;99.90
57664;DHT22;43493;53.098;6.064;2023-02-13T17:57:50;7.00;99.90
57664;DHT22;43493;53.098;6.064;2023-02-13T18:00:17;7.00;99.90
57664;DHT22;43493;53.098;6.064;2023-02-13T18:02:45;6.90;99.90
57664;DHT22;43493;53.098;6.064;2023-02-13T18:05:13;6.90;99.90
57664;DHT22;43493;53.098;6.064;2023-02-13T18:07:41;6.90;99.90
57664;DHT22;43493;53.098;6.064;2023-02-13T18:10:25;6.90;99.90
57664;DHT22;43493;53.098;6.064;2023-02-13T18:12:52;6.90;99.90
57664;DHT22;43493;53.098;6.064;2023-02-13T18:15:19;6.80;99.90
57664;DHT22;43493;53.098;6.064;2023-02-13T18:17:45;6.90;99.90
57664;DHT22;43493;53.098;6.064;2023-02-13T18:20:16;6.90;99.90
57664;DHT22;43493;53.098;6.064;2023-02-13T18:22:42;6.80;99.90
57664;DHT22;43493;53.098;6.064;2023-02-13T18:25:09;6.80;99.90
57664;DHT22;43493;53.098;6.064;2023-02-13T18:27:35;6.70;99.90
57664;DHT22;43493;53.098;6.064;2023-02-13T18:30:00;6.70;99.90
57664;DHT22;43493;53.098;6.064;2023-02-13T18:32:26;6.70;99.90
57664;DHT22;43493;53.098;6.064;2023-02-13T18:34:52;6.60;99.90
57664;DHT22;43493;53.098;6.064;2023-02-13T18:37:18;6.60;99.90
57664;DHT22;43493;53.098;6.064;2023-02-13T18:39:44;6.60;99.90
57664;DHT22;43493;53.098;6.064;2023-02-13T18:42:10;6.50;99.90
57664;DHT22;43493;53.098;6.064;2023-02-13T18:44:38;6.50;99.90
57664;DHT22;43493;53.098;6.064;2023-02-13T18:47:04;6.40;99.90
57664;DHT22;43493;53.098;6.064;2023-02-13T18:49:30;6.40;99.90
57664;DHT22;43493;53.098;6.064;2023-02-13T18:51:56;6.40;99.90
57664;DHT22;43493;53.098;6.064;2023-02-13T18:54:21;6.30;99.90
57664;DHT22;43493;53.098;6.064;2023-02-13T18:56:47;6.30;99.90
57664;DHT22;43493;53.098;6.064;2023-02-13T18:59:13;6.30;99.90